Cargill, Canada
Current Conditions -  °F | °C
As of 7:00 AM on Monday 22 Dec 2014 (Local Time) from CYVV Reporting Station
Scattered Clouds Scattered Clouds  
Wind Chill: 15°   Ceiling: Unl
Heat Index: 23°   Visibility: 15mi
Dew Point: 19°   Wind: 7mph
Humidity: 86%   Direction: 140°SE
Pressure: 30.2"   Gusts: NA
Location:  44.2°N, 81.23°W
Report Text: CYVV 221200Z 14006KT 15SM SCT035 M05/M07 A3020 RMK SC3 SUNSHINE0.0 SLP237
Loading
Personal Weather Stations






























Interactive Weather Map New forecast layout! Learn more

10-Day Weather Forecast

Advertisements
Track Severe Weather on mobile